• Join FlightAware (Why Join?)
  • Login
  • US Flag GB Flag 
03:05 EDT


 

Airport Tracker/Info


-or-


 

Live Flight TrackerFlight Track Log ✈ DAL1562 ✈ 20-Apr-2013 ✈ KDTW - KPHL

Flight Track Log - Related Links

Times and Time Zones

All times are in EDT time to prevent confusion due to time zone crossing. See the DAL1562 flight status page for this flight to view local times or setup timezone preferences in your user account.

Time Position Orientation Groundspeed Altitude Reporting Facility
EDT Latitude Longitude Course Direction KTS MPH feet Rate Location/Type
14:13 42.1972 -83.3608 95° East 163 188 1,600  Level Cleveland Center
14:14 42.1514 -83.3589 178° South 236 272 3,200 2,520 Climbing Cleveland Center
14:15 42.0914 -83.3394 166° South 274 315 6,000 2,760 Climbing Cleveland Center
14:16 42.2167 -82.7685 90° East  Level FlightAware Approximate
14:16 42.0692 -83.2208 104° East 304 350 9,400  Level Cleveland Center
14:17 42.2167 -82.5737 90° East  Level FlightAware Approximate
14:17 42.0947 -83.1072 73° East 310 357 11,600  Level Cleveland Center
14:18 42.2133 -82.3790 95° East  Level FlightAware Approximate
14:18 42.1228 -82.9739 74° East 336 387 13,500  Level Cleveland Center
14:19 42.2012 -82.1849 95° East  Level FlightAware Approximate
14:19 42.1528 -82.8239 75° East 376 433 15,600  Level Cleveland Center
14:20 42.1828 -82.6681 75° East 410 472 17,600 1,800 Climbing Cleveland Center
14:21 42.2128 -82.5036 76° East 434 499 19,200 1,440 Climbing Cleveland Center
14:22 42.2197 -82.3269 87° East 448 516 20,500 1,440 Climbing Cleveland Center
14:23 42.2019 -82.1219 97° East 478 550 22,100 1,620 Climbing Cleveland Center
14:24 42.1750 -81.9392 101° East 501 577 23,800 1,500 Climbing Cleveland Center
14:25 42.0806 -81.8142 135° Southeast 464 534 25,200 1,380 Climbing Cleveland Center
14:26 41.9817 -81.6978 139° Southeast 464 534 26,600 1,380 Climbing Cleveland Center
14:27 41.8847 -81.5817 138° Southeast 473 544 28,000 1,200 Climbing Cleveland Center
14:28 41.7917 -81.4800 141° Southeast 484 557 29,000 480 Climbing Cleveland Center
14:29 41.6925 -81.3672 140° Southeast 474 545 29,000  Level Cleveland Center
14:30 41.5975 -81.2550 139° Southeast 469 540 29,000  Level Cleveland Center
14:31 41.5000 -81.1403 139° Southeast 469 540 29,000  Level Cleveland Center
14:32 41.3983 -81.0039 135° Southeast 474 545 29,000  Level Cleveland Center
14:33 41.3072 -80.8733 133° Southeast 469 540 29,000  Level Cleveland Center
14:34 41.2178 -80.7486 134° Southeast 474 545 29,000  Level Cleveland Center
14:35 41.1450 -80.6467 133° Southeast 474 545 29,000  Level Cleveland Center
14:36 41.0386 -80.4978 133° Southeast 469 540 29,000  Level Cleveland Center
14:37 40.9467 -80.3769 135° Southeast 469 540 29,000  Level Cleveland Center
14:38 40.8778 -80.2811 134° Southeast 461 531 29,000  Level Cleveland Center
14:39 40.7917 -80.1306 127° Southeast 456 525 29,000  Level Cleveland Center
14:40 40.7325 -79.9503 113° Southeast 472 543 29,000  Level Cleveland Center
14:41 40.6753 -79.7892 115° Southeast 477 549 29,000  Level Cleveland Center
14:42 40.6136 -79.6286 117° Southeast 482 555 29,000  Level Cleveland Center
14:43 40.5600 -79.4597 113° Southeast 488 562 29,000  Level Cleveland Center
14:44 40.5247 -79.2831 105° East 495 570 29,000  Level Cleveland Center
14:45 40.4953 -79.0978 102° East 501 577 29,000  Level Cleveland Center
14:46 40.4678 -78.9239 102° East 508 585 29,000  Level Cleveland Center
14:47 40.4403 -78.7497 102° East 497 572 29,000  Level Cleveland Center
14:48 40.4144 -78.5761 101° East 486 559 29,000 -240 Level Cleveland Center
14:49 40.3861 -78.4053 102° East 486 559 28,600 -1,260 Descending Cleveland Center
14:51 40.3425 -78.1325 102° East 481 554 25,800 -1,380 Descending New York Center
14:52 40.3150 -77.9689 102° East 469 540 25,000 -420 Descending New York Center
14:53 40.2992 -77.8175 98° East 464 534 25,000 -600 Level New York Center
14:54 40.2839 -77.6525 97° East 464 534 23,900 -1,020 Descending New York Center
14:55 40.2683 -77.4903 97° East 454 522 23,000 -900 Descending New York Center
14:56 40.2525 -77.3231 97° East 454 522 22,100 -900 Descending New York Center
14:57 40.2322 -77.1606 99° East 454 522 21,200 -1,260 Descending New York Center
14:58 40.2161 -76.9931 97° East 454 522 19,600 -1,500 Descending New York Center
14:59 40.2000 -76.8258 97° East 454 522 18,300 -1,320 Descending New York Center
15:00 40.1819 -76.6478 98° East 459 528 17,000 -1,680 Descending New York Center
15:01 40.1644 -76.4914 98° East 448 516 15,100 -2,280 Descending New York Center
15:02 40.1497 -76.3594 98° East 427 491 13,000 -2,520 Descending FAA TRACON SMA TRACON (SMA)
15:02 40.1450 -76.3128 98° East 425 489 12,200 -2,100 Descending FAA TRACON SMA TRACON (SMA)
15:03 40.1428 -76.2692 94° East 423 487 11,600 -2,100 Descending FAA TRACON SMA TRACON (SMA)
15:03 40.1339 -76.2106 101° East 418 481 10,800 -1,980 Descending FAA TRACON SMA TRACON (SMA)
15:03 40.1303 -76.1647 96° East 406 467 10,300 -1,080 Descending FAA TRACON SMA TRACON (SMA)
15:04 40.1239 -76.1150 100° East 391 450 10,100 -300 Descending FAA TRACON SMA TRACON (SMA)
15:04 40.1200 -76.0758 97° East 351 404 10,100 -360 Level FAA TRACON SMA TRACON (SMA)
15:04 40.1147 -76.0364 100° East 339 390 9,900 -1,260 Descending FAA TRACON SMA TRACON (SMA)
15:05 40.1097 -76.0000 100° East 331 381 9,300 -1,800 Descending FAA TRACON SMA TRACON (SMA)
15:05 40.1044 -75.9547 99° East 330 380 8,700 -1,680 Descending FAA TRACON SMA TRACON (SMA)
15:05 40.1011 -75.9200 97° East 328 377 8,200 -1,200 Descending FAA TRACON SMA TRACON (SMA)
15:06 40.0944 -75.8864 105° East 323 372 7,900 -180 Descending FAA TRACON SMA TRACON (SMA)
15:06 40.0906 -75.8397 96° East 320 368 8,100 120 Climbing FAA TRACON SMA TRACON (SMA)
15:06 40.0869 -75.8047 98° East 317 365 8,000 -180 Descending FAA TRACON SMA TRACON (SMA)
15:07 40.0836 -75.7753 98° East 314 361 8,000  Level FAA TRACON SMA TRACON (SMA)
15:07 40.0850 -75.7267 88° East 314 361 8,000 -780 Level FAA TRACON SMA TRACON (SMA)
15:07 40.0850 -75.6942 90° East 302 348 7,500 -1,500 Descending FAA TRACON SMA TRACON (SMA)
15:08 40.0850 -75.5875 90° East 286 329 6,000 -1,140 Descending FAA TRACON SMA TRACON (SMA)
15:09 40.0850 -75.5567 90° East 280 322 6,000  Level FAA TRACON SMA TRACON (SMA)
15:09 40.0858 -75.5175 88° East 279 321 6,000  Level FAA TRACON SMA TRACON (SMA)
15:09 40.0867 -75.4867 88° East 283 326 6,000  Level FAA TRACON SMA TRACON (SMA)
15:10 40.0839 -75.4542 96° East 270 311 6,000  Level FAA TRACON SMA TRACON (SMA)
15:10 40.0792 -75.4200 100° East 248 285 6,000  Level FAA TRACON SMA TRACON (SMA)
15:10 40.0756 -75.3942 100° East 222 255 6,000  Level FAA TRACON SMA TRACON (SMA)
15:11 40.0725 -75.3700 99° East 219 252 6,000  Level FAA TRACON SMA TRACON (SMA)
15:11 40.0697 -75.3406 97° East 220 253 6,000  Level FAA TRACON SMA TRACON (SMA)
15:11 40.0661 -75.3156 101° East 221 254 6,000 120 Level FAA TRACON SMA TRACON (SMA)
15:12 40.0603 -75.2914 107° East 232 267 6,100  Climbing FAA TRACON SMA TRACON (SMA)
15:12 40.0528 -75.2625 109° East 224 258 6,000 -300 Descending FAA TRACON SMA TRACON (SMA)
15:12 40.0469 -75.2383 107° East 221 254 5,900 -900 Descending FAA TRACON SMA TRACON (SMA)
15:13 40.0425 -75.2161 105° East 220 253 5,400 -1,680 Descending FAA TRACON SMA TRACON (SMA)
15:13 40.0347 -75.1864 109° East 219 252 4,800 -1,680 Descending FAA TRACON SMA TRACON (SMA)
15:13 40.0289 -75.1622 107° East 218 251 4,300 -1,500 Descending FAA TRACON SMA TRACON (SMA)
15:14 40.0231 -75.1386 108° East 219 252 3,800 -1,380 Descending FAA TRACON SMA TRACON (SMA)
15:14 40.0178 -75.1161 107° East 218 251 3,400 -1,260 Descending FAA TRACON SMA TRACON (SMA)
15:14 40.0108 -75.0869 107° East 213 245 3,000 -480 Descending FAA TRACON SMA TRACON (SMA)
15:15 40.0050 -75.0639 108° East 215 247 3,100  Climbing FAA TRACON SMA TRACON (SMA)
15:15 39.9886 -75.0453 139° Southeast 217 250 3,000 -180 Descending FAA TRACON SMA TRACON (SMA)
15:15 39.9756 -75.0400 163° South 214 246 3,000 -360 Level FAA TRACON SMA TRACON (SMA)
15:16 39.9550 -75.0369 173° South 175 201 2,800 -1,080 Descending FAA TRACON SMA TRACON (SMA)
15:16 39.9406 -75.0436 199° South 177 204 2,300 -1,080 Descending FAA TRACON SMA TRACON (SMA)
15:16 39.9286 -75.0567 220° Southwest 181 208 2,100 -300 Descending FAA TRACON SMA TRACON (SMA)
15:17 39.9139 -75.0736 221° Southwest 180 207 2,100  Level FAA TRACON SMA TRACON (SMA)
15:17 39.9042 -75.0881 229° Southwest 182 209 2,100  Level FAA TRACON SMA TRACON (SMA)